Time;durP1;ratioP1;P1;durP2;ratioP2;P2;SDS_P1;SDS_P2;PMS_P1;PMS_P2;Temp;Humidity;BMP_temperature;BMP_pressure;BME280_temperature;BME280_humidity;BME280_pressure;Samples;Min_cycle;Max_cycle;Signal;HPM_P1;HPM_P2
2024/01/01 00:00:08;;;;;;;10.77;6.03;;;;;;;11.19;48.13;97981.97;7004449;28;20358;-84
2024/01/01 00:03:31;;;;;;;10.03;6.23;;;;;;;10.91;48.98;97988.97;7004317;28;20212;-84
2024/01/01 00:06:52;;;;;;;8.50;6.03;;;;;;;10.73;48.83;97946.69;7004405;28;20205;-84
2024/01/01 00:10:14;;;;;;;10.30;6.87;;;;;;;11.14;48.49;97987.22;7005076;28;20225;-84
2024/01/01 00:13:36;;;;;;;9.83;6.53;;;;;;;11.35;47.97;97991.28;7002997;28;20715;-84
2024/01/01 00:16:57;;;;;;;10.30;6.50;;;;;;;11.15;48.33;97982.66;7003652;28;20551;-83
2024/01/01 00:20:21;;;;;;;7.00;6.00;;;;;;;11.61;47.57;97980.94;7006662;28;20236;-82
2024/01/01 00:23:42;;;;;;;7.50;6.50;;;;;;;11.50;47.72;97975.47;7007710;28;20205;-83
2024/01/01 00:27:04;;;;;;;7.17;6.00;;;;;;;11.60;46.82;97952.31;7005417;28;20244;-83
2024/01/01 00:30:26;;;;;;;11.80;6.50;;;;;;;11.71;47.24;97980.38;7008780;28;20275;-84
2024/01/01 00:33:47;;;;;;;9.63;6.07;;;;;;;11.67;45.96;97900.88;7008428;28;20339;-83
2024/01/01 00:37:10;;;;;;;24.63;13.43;;;;;;;11.75;46.59;97965.34;7008246;28;20209;-86
2024/01/01 00:40:32;;;;;;;8.30;5.77;;;;;;;11.40;47.42;97962.53;7009699;28;20213;-83
2024/01/01 00:43:53;;;;;;;7.93;5.87;;;;;;;11.25;47.42;97937.03;7009196;28;20263;-83
2024/01/01 00:47:15;;;;;;;9.13;5.37;;;;;;;11.02;48.52;97948.56;7008887;28;20247;-82
2024/01/01 00:50:36;;;;;;;12.03;5.83;;;;;;;11.71;47.46;97961.47;7009915;28;20586;-83
2024/01/01 00:53:59;;;;;;;10.07;5.87;;;;;;;11.62;47.83;97976.38;7013343;28;20318;-84
2024/01/01 00:57:21;;;;;;;10.57;6.17;;;;;;;11.56;47.96;97971.88;7013175;28;20198;-83
2024/01/01 01:00:42;;;;;;;10.27;6.10;;;;;;;11.56;47.86;97964.56;7014799;28;20205;-85
2024/01/01 01:04:04;;;;;;;10.17;5.93;;;;;;;11.41;47.43;97904.00;7014689;28;20209;-83
2024/01/01 01:07:25;;;;;;;8.77;5.77;;;;;;;11.58;47.98;97949.00;7013528;28;20694;-83
2024/01/01 01:10:49;;;;;;;7.00;5.13;;;;;;;11.75;47.80;97965.34;7013214;28;20302;-83
2024/01/01 01:14:10;;;;;;;12.20;6.00;;;;;;;11.60;47.54;97975.75;7014085;28;20229;-84
2024/01/01 01:17:32;;;;;;;7.23;5.83;;;;;;;11.90;47.06;97981.91;7012669;28;20271;-83
2024/01/01 01:20:53;;;;;;;8.27;6.30;;;;;;;11.77;47.01;97958.66;7012051;28;20253;-83
2024/01/01 01:24:15;;;;;;;9.93;6.70;;;;;;;11.89;46.36;97975.72;7010977;28;20233;-83
2024/01/01 01:27:38;;;;;;;9.13;5.90;;;;;;;11.81;46.62;97967.13;7007729;28;20309;-84
2024/01/01 01:31:02;;;;;;;11.63;7.10;;;;;;;11.58;47.52;97983.25;7010247;28;20216;-83
2024/01/01 01:34:23;;;;;;;7.53;6.70;;;;;;;11.64;47.49;97995.84;7010329;28;20654;-83
2024/01/01 01:37:45;;;;;;;9.00;7.00;;;;;;;12.23;46.23;97996.50;7009399;28;20699;-85
2024/01/01 01:41:06;;;;;;;8.80;6.37;;;;;;;11.52;47.59;98011.16;7006936;28;20297;-82
2024/01/01 01:44:29;;;;;;;12.87;7.37;;;;;;;11.90;46.15;97969.25;7007708;28;20205;-83
2024/01/01 01:47:52;;;;;;;10.80;6.90;;;;;;;11.91;47.15;98002.47;7005904;28;20225;-84
2024/01/01 01:51:13;;;;;;;11.87;7.30;;;;;;;12.30;46.73;97991.81;7007018;28;20194;-84
2024/01/01 01:54:35;;;;;;;11.83;7.60;;;;;;;11.97;46.71;97951.03;7001210;28;20756;-84
2024/01/01 01:57:57;;;;;;;13.33;7.33;;;;;;;11.85;47.73;97992.59;7004927;28;20364;-83
2024/01/01 02:01:20;;;;;;;9.70;7.50;;;;;;;11.81;48.12;97983.34;7007207;28;20759;-83
2024/01/01 02:04:42;;;;;;;9.10;7.23;;;;;;;11.69;48.10;98001.38;7010045;28;20202;-83
2024/01/01 02:08:06;;;;;;;11.80;6.97;;;;;;;11.58;48.46;98002.97;7010099;28;20245;-84
2024/01/01 02:11:27;;;;;;;9.13;6.47;;;;;;;11.24;49.72;98013.63;7009562;28;20204;-84
2024/01/01 02:14:49;;;;;;;8.37;6.20;;;;;;;11.52;48.94;97990.38;7011037;28;20225;-82
2024/01/01 02:18:12;;;;;;;11.17;6.77;;;;;;;11.90;48.29;98001.66;7010267;28;20233;-83
2024/01/01 02:21:34;;;;;;;11.27;6.10;;;;;;;11.94;48.13;97997.44;7011248;28;20210;-85
2024/01/01 02:24:56;;;;;;;9.13;6.00;;;;;;;11.57;48.78;97990.50;6981924;28;20696;-81
2024/01/01 02:28:19;;;;;;;10.30;7.20;;;;;;;11.75;48.85;97986.97;7006270;28;20268;-82
2024/01/01 02:31:41;;;;;;;9.67;7.20;;;;;;;12.11;47.94;97978.66;7003105;28;20580;-83
2024/01/01 02:35:03;;;;;;;9.77;7.40;;;;;;;12.08;48.37;97987.22;6979229;28;20637;-82
2024/01/01 02:38:25;;;;;;;10.03;6.70;;;;;;;11.91;48.51;97983.56;6991762;28;20222;-82
2024/01/01 02:41:47;;;;;;;12.57;6.07;;;;;;;12.01;48.84;97984.66;7003501;28;20198;-84
2024/01/01 02:45:10;;;;;;;9.17;6.37;;;;;;;11.34;49.58;97955.34;6974405;28;20235;-83
2024/01/01 02:48:31;;;;;;;10.90;7.07;;;;;;;11.47;50.07;97989.44;6979898;28;20266;-83
2024/01/01 02:51:53;;;;;;;9.53;6.60;;;;;;;11.44;49.82;97992.59;6981206;28;20271;-83
2024/01/01 02:55:14;;;;;;;8.73;7.37;;;;;;;11.13;50.52;98004.44;6994618;28;20317;-83
2024/01/01 02:58:37;;;;;;;10.37;6.93;;;;;;;11.18;50.35;97980.31;7010045;28;20245;-82
2024/01/01 03:01:59;;;;;;;9.43;6.83;;;;;;;11.12;50.56;97992.03;7009464;28;20282;-83
2024/01/01 03:05:25;;;;;;;7.97;5.60;;;;;;;10.69;51.53;97974.31;6983780;28;20255;-82
2024/01/01 03:08:46;;;;;;;10.33;6.70;;;;;;;11.31;50.01;97977.41;7006870;28;20236;-82
2024/01/01 03:12:08;;;;;;;9.23;6.63;;;;;;;11.56;48.98;97978.06;7010981;28;20293;-82
2024/01/01 03:15:31;;;;;;;10.87;6.30;;;;;;;11.51;49.17;97996.03;7007327;28;20222;-83
2024/01/01 03:18:53;;;;;;;9.93;6.10;;;;;;;11.27;49.61;97984.31;7002905;28;20291;-89
2024/01/01 03:22:14;;;;;;;9.20;6.13;;;;;;;11.72;49.10;98000.91;7001702;28;20285;-84
2024/01/01 03:25:36;;;;;;;6.73;5.90;;;;;;;11.94;48.27;98002.00;7003751;28;20288;-84
2024/01/01 03:28:57;;;;;;;10.73;6.27;;;;;;;12.16;47.42;98008.50;7003256;28;20304;-85
2024/01/01 03:32:20;;;;;;;8.83;6.30;;;;;;;11.68;48.62;98016.75;7003983;28;20233;-85
2024/01/01 03:35:42;;;;;;;9.60;5.80;;;;;;;11.58;49.18;98029.16;7003427;28;20310;-85
2024/01/01 03:39:03;;;;;;;10.60;6.23;;;;;;;11.63;49.55;98034.72;7001873;28;20311;-84
2024/01/01 03:42:25;;;;;;;8.63;5.63;;;;;;;11.72;49.26;98039.56;7001678;28;20228;-85
2024/01/01 03:45:46;;;;;;;6.10;5.20;;;;;;;11.66;49.40;98032.38;7001749;28;20225;-84
2024/01/01 03:49:09;;;;;;;12.37;5.73;;;;;;;11.52;49.75;98036.25;7001023;28;20318;-84
2024/01/01 03:52:31;;;;;;;7.43;5.40;;;;;;;11.44;50.09;98033.06;7002127;28;20300;-85
2024/01/01 03:55:52;;;;;;;9.63;4.50;;;;;;;11.53;50.02;98027.16;6994755;28;20316;-85
2024/01/01 03:59:14;;;;;;;5.53;4.27;;;;;;;11.08;50.95;98014.25;7002687;28;20253;-85
2024/01/01 04:02:35;;;;;;;9.10;4.77;;;;;;;10.68;52.11;98026.59;7003295;28;20291;-85
2024/01/01 04:05:58;;;;;;;9.10;4.10;;;;;;;11.10;51.33;98036.47;7003352;28;20300;-84
2024/01/01 04:09:19;;;;;;;8.20;4.27;;;;;;;11.28;50.85;98023.75;7003198;28;20285;-85
2024/01/01 04:12:41;;;;;;;6.33;4.33;;;;;;;11.41;50.07;98006.56;7000583;28;20209;-84
2024/01/01 04:16:03;;;;;;;6.00;3.80;;;;;;;11.62;49.88;98025.78;7000200;28;20362;-85
2024/01/01 04:19:24;;;;;;;6.83;4.67;;;;;;;11.54;49.69;98028.78;7001662;28;20335;-84
2024/01/01 04:22:51;;;;;;;7.77;4.23;;;;;;;11.32;50.07;98033.03;6991473;28;20206;-84
2024/01/01 04:26:13;;;;;;;8.87;3.80;;;;;;;11.50;50.13;98029.44;6978025;28;20317;-84
2024/01/01 04:29:34;;;;;;;9.70;3.77;;;;;;;11.47;49.97;98036.16;7001362;28;20225;-84
2024/01/01 04:32:56;;;;;;;4.10;3.70;;;;;;;11.47;49.93;98033.47;7008123;28;20292;-85
2024/01/01 04:36:17;;;;;;;5.80;3.50;;;;;;;11.16;50.69;98043.66;7008787;28;20229;-84
2024/01/01 04:39:40;;;;;;;4.70;3.20;;;;;;;11.15;50.53;98018.53;7007864;28;20225;-84
2024/01/01 04:43:02;;;;;;;4.97;3.10;;;;;;;11.10;50.77;98045.34;7010855;28;20240;-85
2024/01/01 04:46:23;;;;;;;5.43;3.23;;;;;;;11.14;50.94;98035.78;7011535;28;20202;-84
2024/01/01 04:49:48;;;;;;;5.30;3.27;;;;;;;10.95;51.36;98027.91;7009708;28;20642;-85
2024/01/01 04:53:12;;;;;;;5.30;3.50;;;;;;;10.94;51.56;98034.38;7021654;28;20256;-85
2024/01/01 04:56:35;;;;;;;4.60;2.97;;;;;;;10.51;52.41;97994.00;7020578;28;20232;-85
2024/01/01 04:59:57;;;;;;;4.43;3.23;;;;;;;10.69;52.49;98026.34;7020366;28;20222;-84
2024/01/01 05:03:18;;;;;;;3.87;2.90;;;;;;;10.65;52.67;98027.03;7019802;28;20202;-83
2024/01/01 05:06:40;;;;;;;8.37;3.17;;;;;;;10.49;52.77;98027.63;7019759;28;20209;-85
2024/01/01 05:10:01;;;;;;;4.23;2.93;;;;;;;9.87;54.98;98031.25;7008984;28;20260;-84
2024/01/01 05:13:28;;;;;;;6.23;3.23;;;;;;;10.32;53.54;98013.91;7006162;28;20198;-84
2024/01/01 05:16:53;;;;;;;2.70;2.50;;;;;;;10.69;52.74;98050.63;6985186;28;20214;-84
2024/01/01 05:20:14;;;;;;;4.13;2.60;;;;;;;10.45;52.30;98011.06;6990201;28;20317;-84
2024/01/01 05:23:36;;;;;;;4.47;2.80;;;;;;;10.39;53.33;98043.50;7009294;28;20204;-84
2024/01/01 05:26:57;;;;;;;3.40;2.50;;;;;;;10.22;53.68;98047.78;7005309;28;20208;-84
2024/01/01 05:30:20;;;;;;;2.80;2.60;;;;;;;9.99;53.81;98042.16;7009108;28;20222;-84
2024/01/01 05:33:42;;;;;;;3.30;2.93;;;;;;;10.71;52.69;98075.50;6994698;28;20208;-84
2024/01/01 05:37:04;;;;;;;2.97;2.67;;;;;;;9.99;53.77;98047.53;6990997;28;20249;-83
2024/01/01 05:40:26;;;;;;;2.60;2.40;;;;;;;10.15;53.72;98072.09;7015874;28;20225;-85
2024/01/01 05:43:49;;;;;;;3.50;2.60;;;;;;;10.32;52.69;98029.22;7015600;28;20210;-84
2024/01/01 05:47:12;;;;;;;3.30;2.77;;;;;;;10.83;51.90;98073.69;7013983;28;20201;-83
2024/01/01 05:50:33;;;;;;;5.30;2.67;;;;;;;10.57;51.69;98019.25;7011363;28;20210;-84
2024/01/01 05:53:57;;;;;;;3.87;2.73;;;;;;;10.81;51.75;98086.56;7013772;28;20205;-84
2024/01/01 05:57:19;;;;;;;5.53;2.40;;;;;;;10.73;52.05;98092.25;7013871;28;20233;-83
2024/01/01 06:00:41;;;;;;;4.47;2.60;;;;;;;10.48;51.84;98047.53;7010911;28;20234;-83
2024/01/01 06:04:04;;;;;;;4.13;2.83;;;;;;;10.48;52.72;98087.94;7014110;28;20206;-83
2024/01/01 06:07:26;;;;;;;5.57;2.80;;;;;;;9.90;52.90;98027.31;7011813;28;20236;-84
2024/01/01 06:10:48;;;;;;;7.03;2.70;;;;;;;10.26;53.22;98119.84;7007429;28;20271;-83
2024/01/01 06:14:14;;;;;;;4.67;3.10;;;;;;;10.23;52.13;98055.66;7013823;28;20200;-84
2024/01/01 06:17:36;;;;;;;5.37;3.07;;;;;;;10.57;52.06;98127.88;7011373;28;20308;-84
2024/01/01 06:20:58;;;;;;;4.03;2.83;;;;;;;10.81;51.19;98097.34;7012958;28;20216;-84
2024/01/01 06:24:20;;;;;;;4.00;2.60;;;;;;;10.88;51.10;98114.31;7011603;28;20292;-84
2024/01/01 06:27:41;;;;;;;3.83;2.67;;;;;;;10.29;51.92;98105.97;7010074;28;20283;-84
2024/01/01 06:31:03;;;;;;;6.43;3.07;;;;;;;10.45;52.11;98118.06;7012585;28;20246;-84
2024/01/01 06:34:25;;;;;;;3.83;2.50;;;;;;;10.82;50.91;98114.38;7012475;28;20242;-84
2024/01/01 06:37:51;;;;;;;3.97;2.33;;;;;;;10.31;51.61;98125.41;7009798;28;20252;-84
2024/01/01 06:41:12;;;;;;;5.57;2.73;;;;;;;10.11;51.79;98119.34;7011511;28;20751;-83
2024/01/01 06:44:43;;;;;;;2.87;2.50;;;;;;;10.63;50.93;98137.78;7011897;28;20210;-83
2024/01/01 06:48:05;;;;;;;3.80;2.73;;;;;;;10.22;51.15;98067.47;7006575;28;20280;-83
2024/01/01 06:51:27;;;;;;;4.93;2.50;;;;;;;10.81;49.96;98115.41;7009300;28;20212;-83
2024/01/01 06:54:50;;;;;;;4.43;2.50;;;;;;;10.54;50.32;98103.22;7004215;28;20225;-83
2024/01/01 06:58:11;;;;;;;4.27;2.80;;;;;;;10.22;51.28;98102.47;7010860;28;20221;-83
2024/01/01 07:01:33;;;;;;;3.80;2.37;;;;;;;10.26;51.57;98119.84;7008263;28;20205;-86
2024/01/01 07:04:54;;;;;;;2.93;2.73;;;;;;;10.24;50.76;98102.25;7003609;28;20237;-86
2024/01/01 07:08:16;;;;;;;4.20;2.60;;;;;;;10.55;50.66;98150.69;7005054;28;20243;-85
2024/01/01 07:11:39;;;;;;;4.17;2.43;;;;;;;10.21;50.63;98091.94;7007014;28;20292;-86
2024/01/01 07:15:00;;;;;;;9.47;2.77;;;;;;;10.64;50.49;98149.38;7006086;28;20624;-85
2024/01/01 07:18:22;;;;;;;3.90;2.37;;;;;;;10.89;49.58;98153.72;7004822;28;20795;-86
2024/01/01 07:21:44;;;;;;;2.80;2.27;;;;;;;10.71;49.99;98144.75;7005281;28;20242;-86
2024/01/01 07:25:05;;;;;;;5.23;2.60;;;;;;;9.99;50.70;98063.69;6994005;28;20239;-85
2024/01/01 07:28:31;;;;;;;4.60;2.50;;;;;;;10.38;50.82;98168.47;6981342;28;20229;-84
2024/01/01 07:31:53;;;;;;;2.70;2.50;;;;;;;10.48;50.32;98168.81;6981570;28;20299;-83
2024/01/01 07:35:15;;;;;;;4.60;2.50;;;;;;;10.62;50.06;98184.66;6981564;28;20260;-83
2024/01/01 07:38:39;;;;;;;3.87;2.40;;;;;;;10.67;49.69;98174.03;6984077;28;20321;-84
2024/01/01 07:42:04;;;;;;;2.23;2.03;;;;;;;10.54;49.97;98184.09;6981540;28;20548;-84
2024/01/01 07:45:28;;;;;;;3.00;2.23;;;;;;;10.96;49.08;98175.19;6982305;28;20205;-84
2024/01/01 07:48:49;;;;;;;3.83;2.23;;;;;;;10.71;49.29;98167.16;6984681;28;20704;-84
2024/01/01 07:57:23;;;;;;;;;;;;;;;;;;;;;
2024/01/01 08:00:48;;;;;;;4.50;2.27;;;;;;;10.90;49.35;98176.09;6759466;28;20667;-83
2024/01/01 08:04:18;;;;;;;6.10;2.63;;;;;;;10.52;50.93;98170.81;6870253;28;20205;-86
2024/01/01 08:08:09;;;;;;;5.47;2.20;;;;;;;10.34;50.79;98167.28;6894159;28;20227;-86
2024/01/01 08:12:27;;;;;;;4.70;2.60;;;;;;;10.44;50.64;98189.13;6893292;28;20323;-89
2024/01/01 08:36:45;;;;;;;5.30;2.63;;;;;;;11.82;47.95;98226.19;6882236;28;20240;-88
2024/01/01 08:40:12;;;;;;;3.60;2.50;;;;;;;12.26;46.83;98239.28;6865084;28;20263;-88
2024/01/01 08:43:33;;;;;;;7.43;2.77;;;;;;;12.21;47.00;98222.13;6860574;28;20296;-86
2024/01/01 08:46:55;;;;;;;6.43;3.20;;;;;;;12.25;46.92;98232.22;6854518;28;20350;-83
2024/01/01 08:50:17;;;;;;;5.87;2.70;;;;;;;13.27;44.74;98229.97;6856556;28;20256;-82
2024/01/01 08:53:38;;;;;;;6.40;2.40;;;;;;;13.24;45.13;98222.34;6856732;28;20831;-82
2024/01/01 08:57:01;;;;;;;4.67;2.40;;;;;;;12.30;45.42;98136.94;6878156;28;20322;-80
2024/01/01 09:00:24;;;;;;;5.80;2.43;;;;;;;12.26;47.07;98233.88;6910517;28;20262;-81
2024/01/01 09:03:45;;;;;;;3.13;2.17;;;;;;;12.05;47.19;98231.66;6897092;28;20207;-81
2024/01/01 09:07:07;;;;;;;5.30;2.40;;;;;;;12.20;47.68;98232.09;6911042;28;20303;-82
2024/01/01 09:10:28;;;;;;;3.57;2.30;;;;;;;12.26;48.09;98236.59;6970222;28;20317;-82
2024/01/01 09:13:51;;;;;;;3.80;2.40;;;;;;;12.18;47.42;98225.28;6999975;28;20792;-80
2024/01/01 09:17:12;;;;;;;6.17;2.33;;;;;;;12.11;48.03;98232.66;7000273;28;20265;-89
2024/01/01 09:20:34;;;;;;;4.87;2.13;;;;;;;12.51;47.46;98222.91;7000734;28;20233;-84
2024/01/01 09:23:57;;;;;;;6.73;2.77;;;;;;;12.48;47.31;98237.72;7000535;28;20238;-83
2024/01/01 09:27:19;;;;;;;5.53;2.60;;;;;;;12.07;46.86;98201.72;6988609;28;20909;-83
2024/01/01 09:30:41;;;;;;;3.83;2.03;;;;;;;11.91;47.74;98221.25;7000785;28;20285;-81
2024/01/01 09:34:06;;;;;;;6.03;3.10;;;;;;;11.75;48.55;98257.81;7000071;28;20250;-83
2024/01/01 09:37:27;;;;;;;4.67;2.10;;;;;;;12.77;46.39;98263.06;6997660;28;20222;-82
2024/01/01 09:40:49;;;;;;;5.60;2.50;;;;;;;12.51;46.81;98261.59;6972882;28;20293;-82
2024/01/01 09:44:11;;;;;;;4.93;2.40;;;;;;;12.92;46.24;98264.28;6976690;28;20209;-82
2024/01/01 09:47:35;;;;;;;4.80;2.30;;;;;;;13.24;45.18;98270.22;6999447;28;20228;-82
2024/01/01 09:50:56;;;;;;;7.10;2.90;;;;;;;13.08;45.40;98268.19;6988091;28;20202;-82
2024/01/01 09:54:18;;;;;;;3.27;2.20;;;;;;;12.49;46.41;98276.38;6971269;28;20206;-82
2024/01/01 09:57:41;;;;;;;5.23;2.40;;;;;;;12.57;46.69;98274.19;6971363;28;20324;-82
2024/01/01 10:01:10;;;;;;;3.83;2.30;;;;;;;12.20;47.29;98264.53;6972225;28;20210;-84
2024/01/01 10:04:34;;;;;;;7.37;2.30;;;;;;;11.76;48.47;98264.06;6972210;28;20626;-85
2024/01/01 10:08:08;;;;;;;4.33;2.73;;;;;;;11.81;48.52;98262.31;6970777;28;20229;-85
2024/01/01 10:11:30;;;;;;;4.73;2.50;;;;;;;12.07;48.54;98244.97;6978861;28;20358;-84
2024/01/01 10:14:52;;;;;;;3.70;1.97;;;;;;;12.03;47.73;98243.78;6999354;28;20693;-84
2024/01/01 10:18:14;;;;;;;3.27;2.23;;;;;;;11.85;48.68;98247.31;6998782;28;20241;-82
2024/01/01 10:21:40;;;;;;;6.07;2.30;;;;;;;11.88;48.18;98246.88;6997004;28;20300;-83
2024/01/01 10:25:11;;;;;;;4.53;2.10;;;;;;;12.12;47.99;98255.91;6999170;28;20178;-82
2024/01/01 10:28:34;;;;;;;3.70;2.20;;;;;;;13.31;45.62;98254.69;6997190;28;20228;-82
2024/01/01 10:31:56;;;;;;;4.73;2.43;;;;;;;13.14;45.53;98249.16;6998591;28;20580;-86
2024/01/01 10:35:17;;;;;;;3.77;1.90;;;;;;;12.99;46.63;98242.56;6998914;28;20316;-84
2024/01/01 10:43:11;;;;;;;3.97;3.00;;;;;;;14.08;43.67;98229.81;6863358;28;20216;-83
2024/01/01 10:46:50;;;;;;;4.37;2.23;;;;;;;13.95;43.60;98197.56;6912113;28;20205;-85
2024/01/01 10:50:21;;;;;;;4.77;2.40;;;;;;;13.51;45.41;98241.63;6912827;28;20243;-82
2024/01/01 10:54:04;;;;;;;7.00;2.90;;;;;;;13.23;44.53;98225.28;6912610;28;20832;-86
2024/01/01 10:57:39;;;;;;;13.80;4.27;;;;;;;13.35;45.89;98255.88;6911229;28;20258;-83
2024/01/01 11:01:06;;;;;;;3.00;2.40;;;;;;;13.24;44.83;98221.50;6896354;28;20300;-85
2024/01/01 11:04:28;;;;;;;6.13;2.30;;;;;;;12.95;44.41;98179.09;6885830;28;20224;-84
2024/01/01 11:08:00;;;;;;;5.43;2.30;;;;;;;14.08;43.00;98235.22;6884464;28;20229;-84
2024/01/01 11:11:25;;;;;;;4.80;2.10;;;;;;;12.81;43.57;98164.97;6908867;28;20680;-85
2024/01/01 11:14:56;;;;;;;5.40;2.67;;;;;;;12.83;44.01;98219.69;6902337;28;20240;-85
2024/01/01 11:18:20;;;;;;;6.97;2.60;;;;;;;12.26;45.41;98211.41;6922947;28;20229;-86
2024/01/01 11:21:44;;;;;;;6.03;2.37;;;;;;;12.75;43.87;98154.28;6998435;28;20201;-87
2024/01/01 11:29:34;;;;;;;8.70;4.97;;;;;;;13.06;43.90;98229.72;6856188;28;20246;-88
2024/01/01 11:33:36;;;;;;;6.77;4.00;;;;;;;13.41;43.46;98241.38;6842475;28;20228;-84
2024/01/01 11:36:59;;;;;;;10.50;2.70;;;;;;;13.14;43.41;98237.50;6857982;28;20239;-85
2024/01/01 11:41:28;;;;;;;5.03;2.80;;;;;;;12.81;43.71;98189.31;6860381;28;20221;-85
2024/01/01 11:48:59;;;;;;;5.93;3.33;;;;;;;12.97;43.07;98210.31;6760926;29;20234;-86
2024/01/01 11:53:07;;;;;;;6.87;3.07;;;;;;;13.14;43.31;98245.63;6810903;29;20310;-83
2024/01/01 11:56:30;;;;;;;7.13;3.40;;;;;;;12.72;43.72;98227.78;6800085;29;20743;-85
2024/01/01 11:59:57;;;;;;;4.30;2.50;;;;;;;12.40;44.22;98210.19;6803212;29;20253;-81
2024/01/01 12:07:33;;;;;;;9.50;3.80;;;;;;;12.48;43.70;98234.19;6876234;28;20354;-85
2024/01/01 12:10:59;;;;;;;5.03;2.57;;;;;;;12.62;44.09;98239.16;6911346;28;20239;-84
2024/01/01 12:31:40;;;;;;;6.13;2.80;;;;;;;13.52;41.72;98240.56;6736039;29;20217;-84
2024/01/01 12:35:40;;;;;;;8.57;4.20;;;;;;;12.55;41.62;98068.09;6762234;29;20274;-85
2024/01/01 12:48:38;;;;;;;9.40;3.63;;;;;;;12.64;41.82;98118.03;6688818;29;20221;-85
2024/01/01 12:52:01;;;;;;;8.33;3.10;;;;;;;13.35;42.31;98251.28;6669510;29;20250;-84
2024/01/01 12:55:22;;;;;;;6.47;2.33;;;;;;;12.93;43.53;98263.22;6768124;29;20730;-85
2024/01/01 12:58:44;;;;;;;8.83;2.63;;;;;;;13.36;42.81;98249.38;6774899;29;20279;-86
2024/01/01 13:02:10;;;;;;;8.63;2.57;;;;;;;12.63;42.92;98194.03;6777233;29;20280;-84
2024/01/01 13:10:39;;;;;;;6.53;2.40;;;;;;;12.85;43.18;98243.78;6864671;28;20284;-85
2024/01/01 13:31:35;;;;;;;8.53;2.33;;;;;;;13.17;42.83;98218.91;7003000;28;20705;-86
2024/01/01 13:52:11;;;;;;;8.57;2.70;;;;;;;13.25;42.42;98199.63;6915142;28;20737;-86
2024/01/01 13:55:33;;;;;;;9.23;3.73;;;;;;;13.42;41.69;98210.53;6915329;28;20254;-83
2024/01/01 13:58:55;;;;;;;5.63;2.63;;;;;;;12.87;42.72;98214.63;6903098;28;20303;-85
2024/01/01 14:02:16;;;;;;;8.30;3.50;;;;;;;12.90;42.28;98203.31;6944963;28;20673;-85
2024/01/01 14:05:39;;;;;;;11.37;3.10;;;;;;;12.02;42.72;98131.34;7002431;28;20348;-82
2024/01/01 14:09:04;;;;;;;5.63;2.77;;;;;;;13.01;42.03;98207.97;6997798;28;20225;-81
2024/01/01 14:12:25;;;;;;;8.33;3.30;;;;;;;13.43;40.81;98176.97;6997830;28;20244;-85
2024/01/01 14:15:47;;;;;;;6.80;3.10;;;;;;;13.02;41.45;98213.16;6996842;28;20266;-82
2024/01/01 14:19:08;;;;;;;6.30;2.87;;;;;;;12.93;41.60;98216.41;6999157;28;20320;-81
2024/01/01 14:22:32;;;;;;;4.47;2.60;;;;;;;13.23;41.18;98226.06;6991352;28;20292;-80
2024/01/01 14:25:53;;;;;;;4.50;2.80;;;;;;;12.98;41.61;98230.91;6999092;28;20296;-82
2024/01/01 14:29:16;;;;;;;8.70;2.83;;;;;;;12.59;42.12;98188.25;6981909;28;20272;-83
2024/01/01 14:32:38;;;;;;;8.43;3.03;;;;;;;13.07;41.61;98226.81;7007722;28;20201;-83
2024/01/01 14:35:59;;;;;;;4.73;2.53;;;;;;;12.30;42.10;98143.19;6998171;28;20756;-80
2024/01/01 14:39:22;;;;;;;6.47;2.43;;;;;;;12.79;41.65;98215.78;7000205;28;20722;-83
2024/01/01 14:42:44;;;;;;;9.63;3.60;;;;;;;12.95;41.70;98235.94;7007898;28;20259;-83
2024/01/01 14:46:05;;;;;;;7.70;4.10;;;;;;;13.31;40.86;98223.03;7008861;28;20244;-82
2024/01/01 14:49:27;;;;;;;8.80;4.10;;;;;;;13.35;40.71;98221.50;7003634;28;20257;-80
2024/01/01 14:52:48;;;;;;;8.60;3.47;;;;;;;13.15;39.96;98207.50;7011756;28;20203;-84
2024/01/01 14:56:11;;;;;;;6.47;3.27;;;;;;;13.22;40.85;98254.22;7016838;28;20329;-81
2024/01/01 14:59:33;;;;;;;8.13;4.90;;;;;;;13.43;40.31;98247.38;7013487;28;20229;-80
2024/01/01 15:16:08;;;;;;;8.17;3.60;;;;;;;12.75;41.85;98270.59;6998643;28;20193;-85
2024/01/01 16:06:50;;;;;;;12.23;6.30;;;;;;;12.32;43.82;98324.03;6946138;28;20320;-84
2024/01/01 16:10:12;;;;;;;4.83;2.50;;;;;;;12.95;42.55;98327.91;6997841;28;20236;-85
2024/01/01 16:13:33;;;;;;;8.00;4.13;;;;;;;12.73;43.36;98335.75;6997826;28;20213;-86
2024/01/01 16:16:55;;;;;;;5.47;2.87;;;;;;;12.71;43.63;98337.03;6993584;28;20362;-83
2024/01/01 16:20:16;;;;;;;6.30;3.00;;;;;;;12.97;43.01;98347.47;6999028;28;20312;-83
2024/01/01 16:23:42;;;;;;;6.20;2.20;;;;;;;13.32;42.17;98343.81;7008970;28;20305;-81
2024/01/01 16:27:04;;;;;;;7.77;3.20;;;;;;;13.31;42.40;98355.69;7020059;28;20210;-79
2024/01/01 16:30:26;;;;;;;5.03;2.57;;;;;;;13.03;42.49;98355.50;7007892;28;20320;-82
2024/01/01 16:33:47;;;;;;;4.30;2.70;;;;;;;12.47;43.92;98365.84;7024839;28;20202;-83
2024/01/01 16:37:11;;;;;;;5.97;2.50;;;;;;;13.05;42.77;98356.09;7030351;28;20220;-81
2024/01/01 16:40:34;;;;;;;7.70;4.57;;;;;;;12.99;43.15;98362.44;7010810;28;20227;-83
2024/01/01 16:43:57;;;;;;;5.67;3.20;;;;;;;12.32;43.42;98302.41;7017134;28;20351;-83
2024/01/01 16:47:18;;;;;;;5.43;3.40;;;;;;;13.17;43.07;98377.78;7004070;28;20229;-82
2024/01/01 16:50:41;;;;;;;6.30;3.00;;;;;;;12.95;42.98;98368.50;7007394;28;20205;-83
2024/01/01 16:54:03;;;;;;;4.27;2.33;;;;;;;12.94;42.92;98358.75;7006964;28;20243;-82
2024/01/01 16:57:26;;;;;;;5.97;2.43;;;;;;;11.74;44.73;98320.19;7003114;28;20731;-84
2024/01/01 17:00:48;;;;;;;6.00;2.70;;;;;;;12.91;43.41;98378.13;7010640;28;20209;-82
2024/01/01 17:04:11;;;;;;;7.70;3.13;;;;;;;13.06;42.81;98362.34;7004187;28;20221;-82
2024/01/01 17:07:33;;;;;;;4.23;2.70;;;;;;;12.99;43.36;98367.03;7005766;28;20208;-80
2024/01/01 17:10:54;;;;;;;4.07;2.87;;;;;;;12.92;42.94;98369.78;7011420;28;20250;-82
2024/01/01 17:14:24;;;;;;;6.60;4.00;;;;;;;12.56;43.60;98377.19;7010653;28;20243;-82
2024/01/01 17:17:46;;;;;;;5.80;2.93;;;;;;;12.56;44.07;98377.19;7010193;28;20659;-84
2024/01/01 17:21:09;;;;;;;7.77;3.50;;;;;;;12.83;43.38;98373.91;6997716;28;20213;-83
2024/01/01 17:24:31;;;;;;;7.97;3.13;;;;;;;12.81;42.70;98380.59;6997567;28;20213;-83
2024/01/01 17:27:52;;;;;;;7.00;3.33;;;;;;;12.86;43.27;98383.44;7009271;28;20262;-85
2024/01/01 17:31:15;;;;;;;7.83;3.33;;;;;;;12.42;43.85;98381.09;7001509;28;20304;-85
2024/01/01 17:34:38;;;;;;;7.07;3.00;;;;;;;12.53;43.16;98331.66;6999460;28;20351;-85
2024/01/01 17:38:00;;;;;;;10.13;2.87;;;;;;;12.70;43.25;98394.88;6998921;28;20696;-83
2024/01/01 17:41:21;;;;;;;7.13;3.30;;;;;;;12.79;42.97;98396.19;6997265;28;20201;-83
2024/01/01 17:44:43;;;;;;;6.17;3.30;;;;;;;12.16;42.97;98305.75;7002806;28;20214;-84
2024/01/01 17:48:06;;;;;;;6.60;3.50;;;;;;;12.54;43.09;98395.50;7013127;28;20260;-84
2024/01/01 17:51:27;;;;;;;8.20;3.07;;;;;;;12.21;43.95;98409.41;7001172;28;20643;-84
2024/01/01 17:54:49;;;;;;;4.90;2.50;;;;;;;12.18;44.17;98406.34;7009209;28;20232;-84
2024/01/01 17:58:10;;;;;;;4.37;2.60;;;;;;;11.88;44.92;98416.22;6999759;28;20249;-84
2024/01/01 18:01:32;;;;;;;7.77;3.20;;;;;;;12.37;43.87;98413.38;7001006;28;20209;-86
2024/01/01 18:04:55;;;;;;;6.90;2.87;;;;;;;12.18;44.45;98403.63;7013629;28;20689;-82
2024/01/01 18:08:16;;;;;;;4.57;2.70;;;;;;;12.74;43.31;98393.38;6983768;28;20391;-85
2024/01/01 18:11:38;;;;;;;7.80;3.77;;;;;;;12.75;43.11;98397.72;7000361;28;20217;-83
2024/01/01 18:14:59;;;;;;;5.57;2.53;;;;;;;12.44;43.77;98414.97;7000025;28;20262;-85
2024/01/01 18:18:21;;;;;;;10.07;5.43;;;;;;;12.50;43.38;98416.75;7008829;28;20253;-83
2024/01/01 18:21:44;;;;;;;7.93;4.37;;;;;;;12.30;44.04;98409.94;7005088;28;20213;-82
2024/01/01 18:25:06;;;;;;;7.07;3.70;;;;;;;12.35;43.87;98429.84;7013012;28;20259;-85
2024/01/01 18:28:28;;;;;;;7.60;2.63;;;;;;;11.67;45.05;98401.25;7017317;28;20231;-83
2024/01/01 18:31:50;;;;;;;6.50;2.53;;;;;;;11.84;44.76;98423.94;7005966;28;20206;-86
2024/01/01 18:35:12;;;;;;;5.50;2.67;;;;;;;12.00;44.60;98411.72;7000665;28;20691;-85
2024/01/01 18:38:35;;;;;;;6.00;2.80;;;;;;;12.03;44.17;98400.50;7003166;28;20222;-85
2024/01/01 18:41:56;;;;;;;8.93;2.70;;;;;;;11.97;44.43;98404.06;7017482;28;20359;-84
2024/01/01 18:45:18;;;;;;;8.27;2.77;;;;;;;11.62;45.11;98398.38;6984407;28;20665;-85
2024/01/01 18:48:39;;;;;;;6.53;3.17;;;;;;;11.96;44.05;98373.53;6972014;28;20719;-85